createdAt,value
2023-06-08T00:02:15.750Z,100901.28
2023-06-08T00:04:43.144Z,100905.81
2023-06-08T00:07:10.025Z,100924.22
2023-06-08T00:09:39.398Z,100924.22
2023-06-08T00:12:12.619Z,100931.25
2023-06-08T00:14:42.337Z,100937.44
2023-06-08T00:17:12.065Z,100945.69
2023-06-08T00:19:43.556Z,100957.25
2023-06-08T00:22:14.216Z,100976.66
2023-06-08T00:24:50.048Z,100994.44
2023-06-08T00:27:16.810Z,101012.78
2023-06-08T00:29:43.705Z,101022.72
2023-06-08T00:32:10.530Z,101027.00
2023-06-08T00:34:39.878Z,101034.44
2023-06-08T00:37:11.471Z,101044.78
2023-06-08T00:39:40.719Z,101059.25
2023-06-08T00:42:11.658Z,101068.31
2023-06-08T00:44:41.525Z,101090.00
2023-06-08T00:47:11.271Z,101119.56
2023-06-08T00:49:46.281Z,101123.25
2023-06-08T00:52:14.497Z,101138.91
2023-06-08T00:54:41.236Z,101143.84
2023-06-08T00:57:11.373Z,101144.44
2023-06-08T00:59:41.325Z,101145.06
2023-06-08T01:02:09.312Z,101138.28
2023-06-08T01:04:37.301Z,101135.84
2023-06-08T01:07:26.478Z,101118.91
2023-06-08T01:09:57.288Z,101115.19
2023-06-08T01:12:34.830Z,101108.56
2023-06-08T01:15:10.539Z,101087.28
2023-06-08T01:17:43.574Z,101082.75
2023-06-08T01:20:16.692Z,101079.59
2023-06-08T01:22:58.679Z,101071.13
2023-06-08T01:25:30.691Z,101050.81
2023-06-08T01:28:13.618Z,101040.09
2023-06-08T01:30:42.008Z,101027.66
2023-06-08T01:33:12.284Z,101014.16
2023-06-08T01:35:39.096Z,101006.56
2023-06-08T01:38:22.523Z,100998.69
2023-06-08T01:40:56.429Z,100984.44
2023-06-08T01:43:24.828Z,100953.22
2023-06-08T01:45:53.192Z,100942.66
2023-06-08T01:48:31.302Z,100931.50
2023-06-08T01:50:59.202Z,100931.94
2023-06-08T01:53:25.956Z,100940.81
2023-06-08T01:56:01.553Z,100930.88
2023-06-08T01:58:28.237Z,100919.28
2023-06-08T02:00:54.982Z,100920.53
2023-06-08T02:03:21.801Z,100920.31
2023-06-08T02:05:48.479Z,100925.00
2023-06-08T02:08:15.108Z,100927.44
2023-06-08T02:10:41.707Z,100921.69
2023-06-08T02:13:08.516Z,100917.50
2023-06-08T02:15:35.508Z,100921.59
2023-06-08T02:18:02.750Z,100918.41
2023-06-08T02:20:34.698Z,100914.81
2023-06-08T02:23:01.571Z,100918.34
2023-06-08T02:25:28.533Z,100916.69
2023-06-08T02:28:07.810Z,100915.81
2023-06-08T02:30:34.585Z,100922.97
2023-06-08T02:33:01.524Z,100923.38
2023-06-08T02:35:42.184Z,100943.16
2023-06-08T02:38:08.970Z,100942.97
2023-06-08T02:40:36.818Z,100949.59
2023-06-08T02:43:03.685Z,100949.59
2023-06-08T02:45:31.596Z,100943.16
2023-06-08T02:47:59.752Z,100954.47
2023-06-08T02:50:26.470Z,100956.34
2023-06-08T02:52:53.144Z,100963.91
2023-06-08T02:55:19.860Z,100969.50
2023-06-08T02:57:50.203Z,100970.50
2023-06-08T03:00:17.907Z,100961.84
2023-06-08T03:03:07.619Z,100965.16
2023-06-08T03:05:40.283Z,100961.06
2023-06-08T03:08:08.282Z,100964.38
2023-06-08T03:10:35.665Z,100963.34
2023-06-08T03:13:07.917Z,100967.50
2023-06-08T03:15:34.539Z,100956.09
2023-06-08T03:18:02.828Z,100951.91
2023-06-08T03:20:52.945Z,100951.34
2023-06-08T03:23:37.525Z,100947.69
2023-06-08T03:26:26.217Z,100937.47
2023-06-08T03:28:59.253Z,100955.06
2023-06-08T03:34:43.417Z,100974.53
2023-06-08T03:37:15.944Z,100969.09
2023-06-08T03:46:25.315Z,100961.84
2023-06-08T03:48:28.041Z,100963.50
2023-06-08T03:51:05.026Z,100956.66
2023-06-08T03:53:51.920Z,100953.97
2023-06-08T03:56:27.225Z,100950.19
2023-06-08T03:59:27.262Z,100948.22
2023-06-08T04:01:58.460Z,100956.44
2023-06-08T04:04:31.894Z,100958.56
2023-06-08T04:07:26.293Z,100946.44
2023-06-08T04:10:04.660Z,100946.06
2023-06-08T04:16:09.860Z,100947.84
2023-06-08T04:21:34.870Z,100956.66
2023-06-08T04:27:23.899Z,100973.25
2023-06-08T04:30:24.668Z,100983.34
2023-06-08T04:33:23.362Z,100988.69
2023-06-08T04:35:54.579Z,100989.97
2023-06-08T04:41:36.246Z,100983.84
2023-06-08T04:46:54.615Z,100986.41
2023-06-08T04:53:11.748Z,100998.78
2023-06-08T04:56:11.498Z,101002.97
2023-06-08T04:59:07.961Z,101001.47
2023-06-08T05:01:51.611Z,101003.59
2023-06-08T05:04:26.156Z,101006.16
2023-06-08T05:07:36.569Z,101005.94
2023-06-08T05:10:07.221Z,101009.34
2023-06-08T05:12:48.682Z,101006.53
2023-06-08T05:15:45.570Z,100991.59
2023-06-08T05:18:37.097Z,100993.41
2023-06-08T05:21:26.353Z,101006.03
2023-06-08T05:24:12.537Z,100995.28
2023-06-08T05:26:41.807Z,100990.06
2023-06-08T05:29:13.967Z,100989.91
2023-06-08T05:32:15.130Z,100985.44
2023-06-08T05:37:31.648Z,100979.88
2023-06-08T05:38:01.864Z,100975.41
2023-06-08T05:40:35.511Z,100988.28
2023-06-08T05:43:16.637Z,100984.94
2023-06-08T05:46:26.009Z,100982.31
2023-06-08T05:49:01.886Z,100979.47
2023-06-08T05:51:28.849Z,100979.41
2023-06-08T05:53:55.636Z,100972.44
2023-06-08T05:56:22.510Z,100964.78
2023-06-08T05:58:50.273Z,100957.53
2023-06-08T06:01:21.111Z,100941.31
2023-06-08T06:03:49.517Z,100940.31
2023-06-08T06:06:17.996Z,100930.22
2023-06-08T06:08:48.211Z,100919.69
2023-06-08T06:11:16.146Z,100900.03
2023-06-08T06:13:50.948Z,100902.50
2023-06-08T06:16:19.248Z,100890.94
2023-06-08T06:18:49.825Z,100886.78
2023-06-08T06:51:49.807Z,100820.53
2023-06-08T06:54:18.583Z,100808.50
2023-06-08T06:56:47.402Z,100816.34
2023-06-08T06:59:16.214Z,100814.78
2023-06-08T07:01:44.441Z,100803.63
2023-06-08T07:04:13.208Z,100798.13
2023-06-08T07:06:43.357Z,100798.63
2023-06-08T07:09:12.123Z,100792.66
2023-06-08T07:17:23.419Z,100777.69
2023-06-08T07:23:39.912Z,100778.31
2023-06-08T07:26:29.455Z,100769.63
2023-06-08T07:28:57.108Z,100774.56
2023-06-08T07:31:33.317Z,100761.50
2023-06-08T07:34:00.207Z,100770.38
2023-06-08T07:36:29.743Z,100766.56
2023-06-08T07:39:00.658Z,100762.31
2023-06-08T07:41:28.742Z,100759.31
2023-06-08T07:43:56.873Z,100763.03
2023-06-08T07:46:24.478Z,100773.66
2023-06-08T07:48:51.262Z,100755.38
2023-06-08T07:51:20.527Z,100758.16
2023-06-08T07:53:47.243Z,100771.53
2023-06-08T07:56:19.297Z,100768.50
2023-06-08T07:58:49.474Z,100752.56
2023-06-08T08:01:17.805Z,100738.47
2023-06-08T08:03:46.818Z,100731.88
2023-06-08T08:06:14.414Z,100728.81
2023-06-08T08:08:41.565Z,100739.03
2023-06-08T08:11:09.793Z,100714.94
2023-06-08T08:13:37.013Z,100719.16
2023-06-08T08:16:03.952Z,100723.28
2023-06-08T08:18:38.506Z,100725.50
2023-06-08T08:21:05.930Z,100718.69
2023-06-08T08:23:38.058Z,100721.28
2023-06-08T08:26:07.722Z,100703.72
2023-06-08T08:28:38.908Z,100696.34
2023-06-08T08:31:06.056Z,100686.56
2023-06-08T08:33:40.860Z,100684.56
2023-06-08T08:36:10.117Z,100677.75
2023-06-08T08:38:41.714Z,100683.16
2023-06-08T08:41:32.634Z,100681.03
2023-06-08T08:44:10.955Z,100689.47
2023-06-08T08:46:40.840Z,100696.66
2023-06-08T08:49:15.150Z,100687.19
2023-06-08T08:51:55.956Z,100697.13
2023-06-08T08:54:33.085Z,100696.56
2023-06-08T08:57:00.084Z,100701.59
2023-06-08T08:59:47.700Z,100690.06
2023-06-08T09:02:24.277Z,100701.53
2023-06-08T09:04:57.373Z,100706.34
2023-06-08T09:07:26.555Z,100690.28
2023-06-08T09:10:16.457Z,100675.44
2023-06-08T09:12:50.940Z,100672.56
2023-06-08T09:15:33.567Z,100666.50
2023-06-08T09:18:04.400Z,100672.25
2023-06-08T09:20:33.459Z,100662.22
2023-06-08T09:23:17.474Z,100660.44
2023-06-08T09:25:44.748Z,100645.63
2023-06-08T09:28:16.532Z,100644.31
2023-06-08T09:30:50.717Z,100643.53
2023-06-08T09:33:29.421Z,100627.47
2023-06-08T09:35:59.547Z,100612.09
2023-06-08T09:38:28.486Z,100609.84
2023-06-08T09:41:15.838Z,100602.13
2023-06-08T09:43:49.396Z,100597.94
2023-06-08T09:46:35.691Z,100603.75
2023-06-08T09:49:08.794Z,100600.00
2023-06-08T09:51:38.873Z,100599.78
2023-06-08T09:54:08.263Z,100588.44
2023-06-08T09:56:41.078Z,100582.81
2023-06-08T09:59:12.863Z,100577.59
2023-06-08T10:16:28.911Z,100551.59
2023-06-08T10:24:01.892Z,100533.09
2023-06-08T10:27:20.456Z,100521.00
2023-06-08T10:33:25.759Z,100515.31
2023-06-08T10:36:25.381Z,100522.19
2023-06-08T10:39:47.192Z,100518.38
2023-06-08T10:55:52.456Z,100461.38
2023-06-08T11:02:41.209Z,100460.38
2023-06-08T11:16:28.771Z,100463.00
2023-06-08T11:19:55.847Z,100456.16
2023-06-08T11:22:44.745Z,100447.84
2023-06-08T11:23:54.875Z,100468.38
2023-06-08T11:26:07.560Z,100457.09
2023-06-08T11:46:34.462Z,100465.66
2023-06-08T11:49:51.345Z,100461.75
2023-06-08T12:00:24.031Z,100468.59
2023-06-08T12:04:09.953Z,100453.41
2023-06-08T12:07:02.300Z,100458.22
2023-06-08T12:12:49.245Z,100452.16
2023-06-08T12:15:18.691Z,100452.97
2023-06-08T12:17:50.098Z,100447.06
2023-06-08T12:20:52.823Z,100452.81
2023-06-08T12:23:41.655Z,100443.34
2023-06-08T12:27:49.716Z,100445.50
2023-06-08T12:31:12.225Z,100446.03
2023-06-08T12:34:22.567Z,100441.94
2023-06-08T12:36:59.782Z,100450.09
2023-06-08T12:39:59.534Z,100445.63
2023-06-08T12:43:34.360Z,100440.16
2023-06-08T12:46:54.789Z,100448.41
2023-06-08T12:49:45.478Z,100446.47
2023-06-08T12:52:23.867Z,100436.56
2023-06-08T12:56:09.240Z,100441.06
2023-06-08T12:58:57.664Z,100437.75
2023-06-08T13:01:36.639Z,100442.84
2023-06-08T13:04:05.339Z,100435.53
2023-06-08T13:06:35.232Z,100435.38
2023-06-08T13:09:08.805Z,100439.25
2023-06-08T13:14:34.423Z,100434.63
2023-06-08T13:17:05.185Z,100432.13
2023-06-08T13:19:32.991Z,100443.56
2023-06-08T13:22:01.705Z,100442.91
2023-06-08T13:24:33.535Z,100436.41
2023-06-08T13:27:02.221Z,100429.59
2023-06-08T13:29:33.465Z,100435.16
2023-06-08T13:32:01.765Z,100426.91
2023-06-08T13:34:29.199Z,100424.41
2023-06-08T13:36:57.521Z,100423.97
2023-06-08T13:39:24.394Z,100421.19
2023-06-08T13:41:53.094Z,100418.09
2023-06-08T13:44:21.017Z,100419.75
2023-06-08T13:46:49.420Z,100418.81
2023-06-08T13:49:17.775Z,100414.78
2023-06-08T13:51:46.283Z,100406.66
2023-06-08T13:54:13.128Z,100406.41
2023-06-08T13:56:41.878Z,100401.03
2023-06-08T13:59:09.207Z,100399.09
2023-06-08T14:01:38.672Z,100396.25
2023-06-08T14:04:08.279Z,100392.47
2023-06-08T14:06:35.554Z,100389.78
2023-06-08T14:09:04.241Z,100389.56
2023-06-08T14:11:33.036Z,100386.63
2023-06-08T14:14:01.392Z,100382.53
2023-06-08T14:16:29.574Z,100378.72
2023-06-08T14:18:57.077Z,100380.34
2023-06-08T14:21:25.317Z,100369.38
2023-06-08T14:23:54.997Z,100365.03
2023-06-08T14:26:24.967Z,100363.69
2023-06-08T14:28:52.785Z,100357.22
2023-06-08T14:31:20.271Z,100348.97
2023-06-08T14:33:48.422Z,100356.75
2023-06-08T14:36:15.296Z,100352.34
2023-06-08T14:38:42.442Z,100353.75
2023-06-08T14:41:09.867Z,100350.56
2023-06-08T14:43:36.862Z,100354.78
2023-06-08T14:46:04.701Z,100349.53
2023-06-08T14:48:32.742Z,100344.91
2023-06-08T14:50:59.942Z,100345.63
2023-06-08T14:53:27.113Z,100346.38
2023-06-08T14:55:55.329Z,100349.63
2023-06-08T14:58:25.464Z,100345.84
2023-06-08T15:00:53.391Z,100339.31
2023-06-08T15:03:20.482Z,100344.97
2023-06-08T15:05:48.190Z,100324.44
2023-06-08T15:08:18.739Z,100333.03
2023-06-08T15:10:45.864Z,100316.31
2023-06-08T15:13:14.012Z,100316.31
2023-06-08T15:15:41.715Z,100323.19
2023-06-08T15:18:12.390Z,100320.69
2023-06-08T15:20:39.379Z,100325.13
2023-06-08T15:23:07.239Z,100319.00
2023-06-08T15:25:34.029Z,100320.53
2023-06-08T15:28:02.162Z,100317.38
2023-06-08T15:30:29.818Z,100328.31
2023-06-08T15:32:57.062Z,100318.59
2023-06-08T15:35:25.129Z,100329.13
2023-06-08T15:37:53.461Z,100336.38
2023-06-08T15:40:22.047Z,100330.31
2023-06-08T15:42:50.223Z,100330.09
2023-06-08T15:45:17.663Z,100334.38
2023-06-08T15:47:46.484Z,100324.16
2023-06-08T15:50:16.482Z,100325.13
2023-06-08T15:52:43.678Z,100329.78
2023-06-08T15:55:11.419Z,100321.69
2023-06-08T15:57:39.436Z,100318.84
2023-06-08T16:00:09.046Z,100318.53
2023-06-08T16:02:39.629Z,100320.16
2023-06-08T16:05:11.476Z,100324.75
2023-06-08T16:07:39.372Z,100313.03
2023-06-08T16:10:07.663Z,100302.56
2023-06-08T16:12:35.569Z,100304.34
2023-06-08T16:15:05.375Z,100309.03
2023-06-08T16:17:32.962Z,100308.81
2023-06-08T16:20:00.283Z,100297.38
2023-06-08T16:22:29.856Z,100292.19
2023-06-08T16:24:58.034Z,100299.84
2023-06-08T16:27:25.314Z,100296.19
2023-06-08T16:29:54.003Z,100286.41
2023-06-08T16:32:22.141Z,100279.50
2023-06-08T16:34:49.676Z,100292.34
2023-06-08T16:37:17.350Z,100278.22
2023-06-08T16:39:46.083Z,100282.47
2023-06-08T16:42:14.992Z,100279.19
2023-06-08T16:44:44.704Z,100280.47
2023-06-08T16:47:13.167Z,100284.59
2023-06-08T16:49:45.026Z,100274.81
2023-06-08T16:52:18.968Z,100271.56
2023-06-08T16:54:46.685Z,100267.09
2023-06-08T16:57:15.094Z,100271.38
2023-06-08T16:59:43.472Z,100262.63
2023-06-08T17:03:26.579Z,100262.34
2023-06-08T17:06:32.694Z,100249.16
2023-06-08T17:12:22.736Z,100264.47
2023-06-08T17:21:27.377Z,100254.41
2023-06-08T17:24:14.975Z,100252.50
2023-06-08T17:29:52.164Z,100256.91
2023-06-08T17:32:37.354Z,100251.13
2023-06-08T17:35:37.573Z,100248.53
2023-06-08T17:38:23.054Z,100253.34
2023-06-08T17:41:01.613Z,100249.25
2023-06-08T17:43:59.903Z,100250.16
2023-06-08T17:46:34.499Z,100245.13
2023-06-08T17:49:16.285Z,100249.41
2023-06-08T17:52:04.901Z,100245.56
2023-06-08T17:55:02.267Z,100249.00
2023-06-08T17:58:09.186Z,100252.94
2023-06-08T18:00:41.985Z,100255.66
2023-06-08T18:03:34.416Z,100264.84
2023-06-08T18:06:25.455Z,100270.75
2023-06-08T18:09:30.073Z,100274.75
2023-06-08T18:12:22.286Z,100275.38
2023-06-08T18:14:52.206Z,100279.56
2023-06-08T18:17:31.225Z,100276.06
2023-06-08T18:20:19.494Z,100279.41
2023-06-08T18:22:58.100Z,100276.97
2023-06-08T18:26:08.975Z,100279.16
2023-06-08T18:31:37.815Z,100276.06
2023-06-08T18:34:34.044Z,100282.66
2023-06-08T18:37:08.044Z,100287.41
2023-06-08T18:39:58.207Z,100281.16
2023-06-08T18:42:51.254Z,100298.09
2023-06-08T18:45:45.362Z,100295.13
2023-06-08T18:48:16.745Z,100294.88
2023-06-08T18:50:44.246Z,100301.69
2023-06-08T18:53:14.425Z,100308.78
2023-06-08T18:56:11.673Z,100306.31
2023-06-08T19:04:13.239Z,100302.28
2023-06-08T19:06:58.124Z,100312.09
2023-06-08T19:27:02.055Z,100306.88
2023-06-08T19:33:57.245Z,100308.94
2023-06-08T20:55:40.720Z,100335.00
2023-06-08T20:58:08.951Z,100342.13
2023-06-08T21:00:37.271Z,100344.19
2023-06-08T21:03:06.267Z,100349.22
2023-06-08T21:05:39.160Z,100347.00
2023-06-08T21:08:08.383Z,100348.91
2023-06-08T21:10:37.486Z,100352.75
2023-06-08T21:13:06.259Z,100355.88
2023-06-08T21:15:34.878Z,100350.69
2023-06-08T21:18:04.453Z,100350.75
2023-06-08T21:20:33.404Z,100348.09
2023-06-08T21:23:01.699Z,100353.50
2023-06-08T21:25:30.653Z,100346.84
2023-06-08T21:27:58.722Z,100356.50
2023-06-08T21:30:27.304Z,100346.84
2023-06-08T21:32:55.723Z,100356.88
2023-06-08T21:35:24.188Z,100361.75
2023-06-08T21:37:52.997Z,100362.91
2023-06-08T21:43:23.017Z,100375.03
2023-06-08T21:46:37.203Z,100370.13
2023-06-08T21:49:08.355Z,100370.13
2023-06-08T21:51:35.752Z,100369.16
2023-06-08T21:54:02.756Z,100373.41
2023-06-08T21:56:30.509Z,100376.47
2023-06-08T21:58:57.876Z,100365.38
2023-06-08T22:01:27.323Z,100353.00
2023-06-08T22:03:57.428Z,100348.88
2023-06-08T22:06:25.179Z,100346.41
2023-06-08T22:08:53.017Z,100345.38
2023-06-08T22:11:21.591Z,100334.09
2023-06-08T22:13:52.689Z,100335.16
2023-06-08T22:16:21.715Z,100343.00
2023-06-08T22:18:49.343Z,100340.94
2023-06-08T22:21:18.605Z,100333.69
2023-06-08T22:23:46.189Z,100331.59
2023-06-08T22:26:31.149Z,100323.50
2023-06-08T22:29:13.765Z,100335.59
2023-06-08T22:35:03.173Z,100335.88
2023-06-08T22:40:23.500Z,100345.59
2023-06-08T22:43:13.846Z,100347.97
2023-06-08T22:45:40.644Z,100350.00
2023-06-08T22:51:05.448Z,100353.66
2023-06-08T22:56:44.840Z,100346.81
2023-06-08T22:59:13.118Z,100350.94
2023-06-08T23:05:15.239Z,100346.72
2023-06-08T23:07:47.307Z,100344.38
2023-06-08T23:10:40.274Z,100342.84
2023-06-08T23:13:16.230Z,100350.50
2023-06-08T23:15:43.025Z,100342.97
2023-06-08T23:18:09.890Z,100500.75
2023-06-08T23:20:42.392Z,100508.84
2023-06-08T23:23:10.726Z,100511.44
2023-06-08T23:25:40.367Z,100507.69
2023-06-08T23:28:13.699Z,100507.94
2023-06-08T23:31:02.215Z,100503.69
2023-06-08T23:33:44.821Z,100516.84
2023-06-08T23:36:32.113Z,100521.31
2023-06-08T23:41:58.028Z,100515.78
2023-06-08T23:44:50.896Z,100525.25
2023-06-08T23:47:34.716Z,100531.47
2023-06-08T23:50:04.979Z,100529.09
2023-06-08T23:55:01.832Z,100529.59
2023-06-08T23:59:38.046Z,100550.59
